sensor_id;sensor_type;location;lat;lon;timestamp;pressure;altitude;pressure_sealevel;temperature;humidity
38718;BME280;24468;52.128;9.278;2024-01-27T00:01:45;102233.19;;;6.42;100.00
38718;BME280;24468;52.128;9.278;2024-01-27T00:04:10;102228.72;;;6.23;100.00
38718;BME280;24468;52.128;9.278;2024-01-27T00:06:36;102244.81;;;6.40;100.00
38718;BME280;24468;52.128;9.278;2024-01-27T00:09:02;102243.03;;;6.34;100.00
38718;BME280;24468;52.128;9.278;2024-01-27T00:11:27;102238.53;;;6.13;100.00
38718;BME280;24468;52.128;9.278;2024-01-27T00:13:53;102243.91;;;6.27;100.00
38718;BME280;24468;52.128;9.278;2024-01-27T00:16:18;102240.34;;;6.23;100.00
38718;BME280;24468;52.128;9.278;2024-01-27T00:18:46;102241.22;;;6.04;100.00
38718;BME280;24468;52.128;9.278;2024-01-27T00:21:11;102250.13;;;6.08;100.00
38718;BME280;24468;52.128;9.278;2024-01-27T00:23:37;102252.84;;;6.18;100.00
38718;BME280;24468;52.128;9.278;2024-01-27T00:26:04;102257.28;;;6.10;100.00
38718;BME280;24468;52.128;9.278;2024-01-27T00:28:30;102256.38;;;6.00;100.00
38718;BME280;24468;52.128;9.278;2024-01-27T00:30:55;102264.41;;;5.96;100.00
38718;BME280;24468;52.128;9.278;2024-01-27T00:33:22;102260.84;;;6.11;100.00
38718;BME280;24468;52.128;9.278;2024-01-27T00:35:47;102267.03;;;5.85;100.00
38718;BME280;24468;52.128;9.278;2024-01-27T00:38:13;102277.66;;;5.54;100.00
38718;BME280;24468;52.128;9.278;2024-01-27T00:40:39;102274.13;;;5.71;100.00
38718;BME280;24468;52.128;9.278;2024-01-27T00:43:04;102282.16;;;5.75;100.00
38718;BME280;24468;52.128;9.278;2024-01-27T00:45:30;102276.78;;;5.66;100.00
38718;BME280;24468;52.128;9.278;2024-01-27T00:47:57;102269.75;;;5.97;100.00
38718;BME280;24468;52.128;9.278;2024-01-27T00:50:23;102267.81;;;5.53;100.00
38718;BME280;24468;52.128;9.278;2024-01-27T00:52:48;102285.66;;;5.51;100.00
38718;BME280;24468;52.128;9.278;2024-01-27T00:55:14;102282.19;;;5.74;100.00
38718;BME280;24468;52.128;9.278;2024-01-27T00:57:40;102284.88;;;5.89;100.00
38718;BME280;24468;52.128;9.278;2024-01-27T01:00:08;102289.34;;;5.89;100.00
38718;BME280;24468;52.128;9.278;2024-01-27T01:02:34;102289.25;;;5.61;100.00
38718;BME280;24468;52.128;9.278;2024-01-27T01:05:00;102291.03;;;5.56;100.00
38718;BME280;24468;52.128;9.278;2024-01-27T01:07:25;102291.97;;;5.63;100.00
38718;BME280;24468;52.128;9.278;2024-01-27T01:09:51;102285.66;;;5.50;100.00
38718;BME280;24468;52.128;9.278;2024-01-27T01:12:16;102297.31;;;5.70;100.00
38718;BME280;24468;52.128;9.278;2024-01-27T01:14:43;102297.28;;;5.61;100.00
38718;BME280;24468;52.128;9.278;2024-01-27T01:17:09;102302.56;;;5.41;100.00
38718;BME280;24468;52.128;9.278;2024-01-27T01:19:37;102303.59;;;5.68;100.00
38718;BME280;24468;52.128;9.278;2024-01-27T01:22:03;102307.09;;;5.56;100.00
38718;BME280;24468;52.128;9.278;2024-01-27T01:24:29;102308.91;;;5.60;100.00
38718;BME280;24468;52.128;9.278;2024-01-27T01:26:55;102313.19;;;5.29;100.00
38718;BME280;24468;52.128;9.278;2024-01-27T01:29:20;102314.19;;;5.51;100.00
38718;BME280;24468;52.128;9.278;2024-01-27T01:31:47;102305.31;;;5.55;100.00
38718;BME280;24468;52.128;9.278;2024-01-27T01:34:13;102307.09;;;5.51;100.00
38718;BME280;24468;52.128;9.278;2024-01-27T01:36:39;102305.28;;;5.53;100.00
38718;BME280;24468;52.128;9.278;2024-01-27T01:39:04;102317.66;;;5.30;100.00
38718;BME280;24468;52.128;9.278;2024-01-27T01:41:30;102327.44;;;5.22;100.00
38718;BME280;24468;52.128;9.278;2024-01-27T01:43:56;102331.91;;;5.24;100.00
38718;BME280;24468;52.128;9.278;2024-01-27T01:46:22;102327.34;;;5.12;100.00
38718;BME280;24468;52.128;9.278;2024-01-27T01:48:49;102325.56;;;5.08;100.00
38718;BME280;24468;52.128;9.278;2024-01-27T01:51:18;102329.25;;;5.29;100.00
38718;BME280;24468;52.128;9.278;2024-01-27T01:53:47;102328.31;;;5.19;100.00
38718;BME280;24468;52.128;9.278;2024-01-27T01:56:16;102336.28;;;5.15;100.00
38718;BME280;24468;52.128;9.278;2024-01-27T01:58:42;102333.38;;;4.82;100.00
38718;BME280;24468;52.128;9.278;2024-01-27T02:01:08;102326.41;;;5.03;100.00
38718;BME280;24468;52.128;9.278;2024-01-27T02:03:34;102327.22;;;4.93;100.00
38718;BME280;24468;52.128;9.278;2024-01-27T02:05:59;102322.56;;;4.68;100.00
38718;BME280;24468;52.128;9.278;2024-01-27T02:08:25;102320.00;;;4.82;100.00
38718;BME280;24468;52.128;9.278;2024-01-27T02:10:51;102316.47;;;4.83;100.00
38718;BME280;24468;52.128;9.278;2024-01-27T02:13:21;102320.97;;;4.94;100.00
38718;BME280;24468;52.128;9.278;2024-01-27T02:15:48;102316.53;;;4.96;100.00
38718;BME280;24468;52.128;9.278;2024-01-27T02:18:14;102312.94;;;4.89;100.00
38718;BME280;24468;52.128;9.278;2024-01-27T02:20:40;102316.34;;;4.66;100.00
38718;BME280;24468;52.128;9.278;2024-01-27T02:23:06;102311.03;;;4.73;100.00
38718;BME280;24468;52.128;9.278;2024-01-27T02:25:32;102319.22;;;4.99;100.00
38718;BME280;24468;52.128;9.278;2024-01-27T02:27:58;102319.06;;;4.73;100.00
38718;BME280;24468;52.128;9.278;2024-01-27T02:30:24;102322.53;;;4.62;100.00
38718;BME280;24468;52.128;9.278;2024-01-27T02:32:50;102336.06;;;4.81;100.00
38718;BME280;24468;52.128;9.278;2024-01-27T02:35:16;102341.59;;;5.10;100.00
38718;BME280;24468;52.128;9.278;2024-01-27T02:37:42;102333.56;;;5.10;100.00
38718;BME280;24468;52.128;9.278;2024-01-27T02:40:09;102332.69;;;5.09;100.00
38718;BME280;24468;52.128;9.278;2024-01-27T02:42:36;102329.00;;;4.94;100.00
38718;BME280;24468;52.128;9.278;2024-01-27T02:45:02;102333.34;;;4.78;100.00
38718;BME280;24468;52.128;9.278;2024-01-27T02:47:28;102337.84;;;4.85;100.00
38718;BME280;24468;52.128;9.278;2024-01-27T02:49:53;102331.66;;;4.94;100.00
38718;BME280;24468;52.128;9.278;2024-01-27T02:52:19;102335.31;;;5.00;100.00
38718;BME280;24468;52.128;9.278;2024-01-27T02:54:44;102327.22;;;4.91;100.00
38718;BME280;24468;52.128;9.278;2024-01-27T02:57:10;102335.19;;;4.85;100.00
38718;BME280;24468;52.128;9.278;2024-01-27T02:59:36;102330.78;;;4.92;100.00
38718;BME280;24468;52.128;9.278;2024-01-27T03:02:05;102325.53;;;5.05;100.00
38718;BME280;24468;52.128;9.278;2024-01-27T03:04:30;102337.91;;;4.93;100.00
38718;BME280;24468;52.128;9.278;2024-01-27T03:06:56;102337.94;;;4.94;100.00
38718;BME280;24468;52.128;9.278;2024-01-27T03:09:21;102350.28;;;4.80;100.00
38718;BME280;24468;52.128;9.278;2024-01-27T03:11:47;102360.03;;;4.73;100.00
38718;BME280;24468;52.128;9.278;2024-01-27T03:14:13;102351.09;;;4.71;100.00
38718;BME280;24468;52.128;9.278;2024-01-27T03:16:38;102356.41;;;4.65;100.00
38718;BME280;24468;52.128;9.278;2024-01-27T03:19:04;102351.22;;;4.83;100.00
38718;BME280;24468;52.128;9.278;2024-01-27T03:21:29;102354.75;;;4.79;100.00
38718;BME280;24468;52.128;9.278;2024-01-27T03:23:55;102353.72;;;4.62;100.00
38718;BME280;24468;52.128;9.278;2024-01-27T03:26:21;102358.03;;;4.48;100.00
38718;BME280;24468;52.128;9.278;2024-01-27T03:28:47;102351.84;;;4.53;100.00
38718;BME280;24468;52.128;9.278;2024-01-27T03:31:12;102352.94;;;4.75;100.00
38718;BME280;24468;52.128;9.278;2024-01-27T03:33:38;102359.03;;;4.59;100.00
38718;BME280;24468;52.128;9.278;2024-01-27T03:36:13;102354.72;;;4.75;100.00
38718;BME280;24468;52.128;9.278;2024-01-27T03:38:40;102363.63;;;4.77;100.00
38718;BME280;24468;52.128;9.278;2024-01-27T03:41:06;102360.75;;;4.54;100.00
38718;BME280;24468;52.128;9.278;2024-01-27T03:43:33;102360.78;;;4.55;100.00
38718;BME280;24468;52.128;9.278;2024-01-27T03:45:59;102361.56;;;4.46;100.00
38718;BME280;24468;52.128;9.278;2024-01-27T03:48:25;102372.28;;;4.48;100.00
38718;BME280;24468;52.128;9.278;2024-01-27T03:50:51;102358.94;;;4.48;100.00
38718;BME280;24468;52.128;9.278;2024-01-27T03:53:16;102371.44;;;4.54;100.00
38718;BME280;24468;52.128;9.278;2024-01-27T03:55:42;102376.91;;;4.64;100.00
38718;BME280;24468;52.128;9.278;2024-01-27T03:58:08;102380.50;;;4.68;100.00
38718;BME280;24468;52.128;9.278;2024-01-27T04:00:33;102378.81;;;4.78;100.00
38718;BME280;24468;52.128;9.278;2024-01-27T04:02:59;102383.34;;;4.88;100.00
38718;BME280;24468;52.128;9.278;2024-01-27T04:05:28;102382.16;;;4.54;100.00
38718;BME280;24468;52.128;9.278;2024-01-27T04:07:54;102387.78;;;4.84;100.00
38718;BME280;24468;52.128;9.278;2024-01-27T04:10:21;102383.38;;;4.93;100.00
38718;BME280;24468;52.128;9.278;2024-01-27T04:12:47;102393.25;;;4.97;100.00
38718;BME280;24468;52.128;9.278;2024-01-27T04:15:13;102386.91;;;4.85;100.00
38718;BME280;24468;52.128;9.278;2024-01-27T04:17:42;102393.03;;;4.72;100.00
38718;BME280;24468;52.128;9.278;2024-01-27T04:20:09;102391.22;;;4.74;100.00
38718;BME280;24468;52.128;9.278;2024-01-27T04:22:35;102391.03;;;4.51;100.00
38718;BME280;24468;52.128;9.278;2024-01-27T04:25:01;102400.06;;;4.64;100.00
38718;BME280;24468;52.128;9.278;2024-01-27T04:27:27;102391.41;;;4.91;100.00
38718;BME280;24468;52.128;9.278;2024-01-27T04:29:53;102392.38;;;4.99;100.00
38718;BME280;24468;52.128;9.278;2024-01-27T04:32:19;102385.25;;;5.01;100.00
38718;BME280;24468;52.128;9.278;2024-01-27T04:34:47;102388.78;;;4.99;100.00
38718;BME280;24468;52.128;9.278;2024-01-27T04:37:13;102383.47;;;5.03;100.00
38718;BME280;24468;52.128;9.278;2024-01-27T04:39:38;102385.97;;;4.82;100.00
38718;BME280;24468;52.128;9.278;2024-01-27T04:42:05;102379.97;;;5.10;100.00
38718;BME280;24468;52.128;9.278;2024-01-27T04:44:32;102387.06;;;5.05;100.00
38718;BME280;24468;52.128;9.278;2024-01-27T04:46:58;102396.81;;;5.02;100.00
38718;BME280;24468;52.128;9.278;2024-01-27T04:49:23;102390.44;;;4.81;100.00
38718;BME280;24468;52.128;9.278;2024-01-27T04:51:49;102394.88;;;4.81;100.00
38718;BME280;24468;52.128;9.278;2024-01-27T04:54:15;102409.25;;;4.95;100.00
38718;BME280;24468;52.128;9.278;2024-01-27T04:56:40;102402.78;;;4.72;100.00
38718;BME280;24468;52.128;9.278;2024-01-27T04:59:06;102403.84;;;4.86;100.00
38718;BME280;24468;52.128;9.278;2024-01-27T05:01:32;102412.81;;;4.91;100.00
38718;BME280;24468;52.128;9.278;2024-01-27T05:03:58;102421.59;;;4.79;100.00
38718;BME280;24468;52.128;9.278;2024-01-27T05:06:23;102407.50;;;4.94;100.00
38718;BME280;24468;52.128;9.278;2024-01-27T05:08:49;102414.53;;;4.86;100.00
38718;BME280;24468;52.128;9.278;2024-01-27T05:11:16;102418.75;;;4.61;100.00
38718;BME280;24468;52.128;9.278;2024-01-27T05:13:42;102421.97;;;4.29;100.00
38718;BME280;24468;52.128;9.278;2024-01-27T05:16:09;102419.53;;;4.52;100.00
38718;BME280;24468;52.128;9.278;2024-01-27T05:18:34;102422.44;;;4.72;100.00
38718;BME280;24468;52.128;9.278;2024-01-27T05:21:00;102417.06;;;4.69;100.00
38718;BME280;24468;52.128;9.278;2024-01-27T05:23:25;102432.19;;;4.67;100.00
38718;BME280;24468;52.128;9.278;2024-01-27T05:25:51;102431.28;;;4.68;100.00
38718;BME280;24468;52.128;9.278;2024-01-27T05:28:16;102439.97;;;4.45;100.00
38718;BME280;24468;52.128;9.278;2024-01-27T05:30:42;102444.97;;;4.16;100.00
38718;BME280;24468;52.128;9.278;2024-01-27T05:33:09;102452.31;;;4.34;100.00
38718;BME280;24468;52.128;9.278;2024-01-27T05:35:34;102454.56;;;4.00;100.00
38718;BME280;24468;52.128;9.278;2024-01-27T05:38:00;102458.41;;;4.24;100.00
38718;BME280;24468;52.128;9.278;2024-01-27T05:40:25;102451.16;;;4.14;100.00
38718;BME280;24468;52.128;9.278;2024-01-27T05:42:51;102449.53;;;4.27;100.00
38718;BME280;24468;52.128;9.278;2024-01-27T05:45:17;102439.00;;;4.39;100.00
38718;BME280;24468;52.128;9.278;2024-01-27T05:47:42;102447.81;;;4.33;100.00
38718;BME280;24468;52.128;9.278;2024-01-27T05:50:08;102445.16;;;4.33;100.00
38718;BME280;24468;52.128;9.278;2024-01-27T05:52:35;102447.84;;;4.35;100.00
38718;BME280;24468;52.128;9.278;2024-01-27T05:55:02;102450.41;;;4.24;100.00
38718;BME280;24468;52.128;9.278;2024-01-27T05:57:28;102468.41;;;4.39;100.00
38718;BME280;24468;52.128;9.278;2024-01-27T05:59:53;102466.44;;;4.24;100.00
38718;BME280;24468;52.128;9.278;2024-01-27T06:02:19;102468.09;;;4.16;100.00
38718;BME280;24468;52.128;9.278;2024-01-27T06:04:45;102464.63;;;3.59;100.00
38718;BME280;24468;52.128;9.278;2024-01-27T06:07:11;102490.00;;;3.87;100.00
38718;BME280;24468;52.128;9.278;2024-01-27T06:09:39;102480.31;;;3.95;100.00
38718;BME280;24468;52.128;9.278;2024-01-27T06:12:05;102496.53;;;4.11;100.00
38718;BME280;24468;52.128;9.278;2024-01-27T06:14:31;102484.13;;;4.14;100.00
38718;BME280;24468;52.128;9.278;2024-01-27T06:16:56;102484.13;;;4.14;100.00
38718;BME280;24468;52.128;9.278;2024-01-27T06:19:22;102488.56;;;4.14;100.00
38718;BME280;24468;52.128;9.278;2024-01-27T06:21:48;102491.25;;;4.15;100.00
38718;BME280;24468;52.128;9.278;2024-01-27T06:24:13;102486.88;;;4.20;100.00
38718;BME280;24468;52.128;9.278;2024-01-27T06:26:39;102489.59;;;4.23;100.00
38718;BME280;24468;52.128;9.278;2024-01-27T06:29:04;102481.47;;;4.14;100.00
38718;BME280;24468;52.128;9.278;2024-01-27T06:31:30;102489.56;;;4.22;100.00
38718;BME280;24468;52.128;9.278;2024-01-27T06:33:55;102492.84;;;4.03;100.00
38718;BME280;24468;52.128;9.278;2024-01-27T06:36:21;102490.44;;;3.59;100.00
38718;BME280;24468;52.128;9.278;2024-01-27T06:38:50;102484.72;;;3.95;100.00
38718;BME280;24468;52.128;9.278;2024-01-27T06:41:16;102487.63;;;4.10;100.00
38718;BME280;24468;52.128;9.278;2024-01-27T06:43:42;102497.38;;;4.07;100.00
38718;BME280;24468;52.128;9.278;2024-01-27T06:46:08;102503.53;;;4.01;100.00
38718;BME280;24468;52.128;9.278;2024-01-27T06:48:33;102503.53;;;4.03;100.00
38718;BME280;24468;52.128;9.278;2024-01-27T06:50:59;102510.59;;;3.97;100.00
38718;BME280;24468;52.128;9.278;2024-01-27T06:53:24;102515.78;;;3.87;100.00
38718;BME280;24468;52.128;9.278;2024-01-27T06:55:50;102513.22;;;3.93;100.00
38718;BME280;24468;52.128;9.278;2024-01-27T06:58:16;102520.22;;;3.85;100.00
38718;BME280;24468;52.128;9.278;2024-01-27T07:00:41;102509.72;;;3.42;100.00
38718;BME280;24468;52.128;9.278;2024-01-27T07:03:07;102519.41;;;3.36;100.00
38718;BME280;24468;52.128;9.278;2024-01-27T07:05:33;102533.56;;;3.30;100.00
38718;BME280;24468;52.128;9.278;2024-01-27T07:08:08;102537.31;;;3.43;100.00
38718;BME280;24468;52.128;9.278;2024-01-27T07:10:35;102537.53;;;3.55;100.00
38718;BME280;24468;52.128;9.278;2024-01-27T07:13:01;102535.97;;;3.69;100.00
38718;BME280;24468;52.128;9.278;2024-01-27T07:15:27;102538.78;;;3.77;100.00
38718;BME280;24468;52.128;9.278;2024-01-27T07:17:53;102538.00;;;3.86;100.00
38718;BME280;24468;52.128;9.278;2024-01-27T07:20:19;102538.06;;;3.89;100.00
38718;BME280;24468;52.128;9.278;2024-01-27T07:22:47;102539.06;;;3.97;100.00
38718;BME280;24468;52.128;9.278;2024-01-27T07:25:13;102548.16;;;4.11;100.00
38718;BME280;24468;52.128;9.278;2024-01-27T07:27:39;102550.38;;;3.81;100.00
38718;BME280;24468;52.128;9.278;2024-01-27T07:30:05;102541.72;;;3.95;100.00
38718;BME280;24468;52.128;9.278;2024-01-27T07:32:33;102554.47;;;3.59;100.00
38718;BME280;24468;52.128;9.278;2024-01-27T07:34:59;102549.00;;;3.49;100.00
38718;BME280;24468;52.128;9.278;2024-01-27T07:37:25;102546.81;;;3.78;100.00
38718;BME280;24468;52.128;9.278;2024-01-27T07:39:50;102554.25;;;3.98;100.00
38718;BME280;24468;52.128;9.278;2024-01-27T07:42:16;102556.25;;;3.58;100.00
38718;BME280;24468;52.128;9.278;2024-01-27T07:44:41;102567.34;;;3.83;100.00
38718;BME280;24468;52.128;9.278;2024-01-27T07:47:08;102559.53;;;3.96;100.00
38718;BME280;24468;52.128;9.278;2024-01-27T07:49:34;102564.13;;;4.04;100.00
38718;BME280;24468;52.128;9.278;2024-01-27T07:52:00;102563.31;;;4.09;100.00
38718;BME280;24468;52.128;9.278;2024-01-27T07:54:25;102561.31;;;3.96;100.00
38718;BME280;24468;52.128;9.278;2024-01-27T07:56:51;102556.25;;;4.14;100.00
38718;BME280;24468;52.128;9.278;2024-01-27T07:59:17;102567.84;;;4.15;100.00
38718;BME280;24468;52.128;9.278;2024-01-27T08:01:43;102570.47;;;4.12;100.00
38718;BME280;24468;52.128;9.278;2024-01-27T08:04:09;102575.16;;;4.28;100.00
38718;BME280;24468;52.128;9.278;2024-01-27T08:06:45;102577.06;;;4.38;100.00
38718;BME280;24468;52.128;9.278;2024-01-27T08:09:10;102582.66;;;4.55;100.00
38718;BME280;24468;52.128;9.278;2024-01-27T08:11:36;102573.84;;;4.64;100.00
38718;BME280;24468;52.128;9.278;2024-01-27T08:14:02;102575.59;;;4.63;100.00
38718;BME280;24468;52.128;9.278;2024-01-27T08:16:28;102577.28;;;4.54;100.00
38718;BME280;24468;52.128;9.278;2024-01-27T08:18:53;102576.59;;;4.72;100.00
38718;BME280;24468;52.128;9.278;2024-01-27T08:21:19;102575.69;;;4.71;100.00
38718;BME280;24468;52.128;9.278;2024-01-27T08:23:44;102582.22;;;4.95;100.00
38718;BME280;24468;52.128;9.278;2024-01-27T08:26:10;102586.56;;;4.83;100.00
38718;BME280;24468;52.128;9.278;2024-01-27T08:28:36;102583.13;;;4.95;100.00
38718;BME280;24468;52.128;9.278;2024-01-27T08:31:02;102589.53;;;5.08;100.00
38718;BME280;24468;52.128;9.278;2024-01-27T08:33:27;102597.72;;;5.25;100.00
38718;BME280;24468;52.128;9.278;2024-01-27T08:35:53;102579.06;;;5.32;100.00
38718;BME280;24468;52.128;9.278;2024-01-27T08:38:19;102589.88;;;5.45;100.00
38718;BME280;24468;52.128;9.278;2024-01-27T08:40:44;102585.25;;;5.28;100.00
38718;BME280;24468;52.128;9.278;2024-01-27T08:43:10;102596.75;;;5.18;100.00
38718;BME280;24468;52.128;9.278;2024-01-27T08:45:37;102593.44;;;5.41;100.00
38718;BME280;24468;52.128;9.278;2024-01-27T08:48:04;102593.47;;;5.45;100.00
38718;BME280;24468;52.128;9.278;2024-01-27T08:50:30;102591.81;;;5.61;100.00
38718;BME280;24468;52.128;9.278;2024-01-27T08:52:55;102598.81;;;5.45;100.00
38718;BME280;24468;52.128;9.278;2024-01-27T08:55:21;102606.25;;;5.78;100.00
38718;BME280;24468;52.128;9.278;2024-01-27T08:57:52;102591.25;;;5.96;100.00
38718;BME280;24468;52.128;9.278;2024-01-27T09:00:18;102587.59;;;5.92;100.00
38718;BME280;24468;52.128;9.278;2024-01-27T09:02:44;102592.22;;;6.07;100.00
38718;BME280;24468;52.128;9.278;2024-01-27T09:05:09;102586.94;;;6.19;100.00
38718;BME280;24468;52.128;9.278;2024-01-27T09:07:35;102585.22;;;6.26;100.00
38718;BME280;24468;52.128;9.278;2024-01-27T09:10:01;102580.66;;;6.10;100.00
38718;BME280;24468;52.128;9.278;2024-01-27T09:12:27;102581.50;;;6.06;100.00
38718;BME280;24468;52.128;9.278;2024-01-27T09:14:52;102585.84;;;5.93;100.00
38718;BME280;24468;52.128;9.278;2024-01-27T09:17:20;102577.47;;;5.51;100.00
38718;BME280;24468;52.128;9.278;2024-01-27T09:19:46;102583.31;;;6.10;100.00
38718;BME280;24468;52.128;9.278;2024-01-27T09:22:11;102586.63;;;5.79;100.00
38718;BME280;24468;52.128;9.278;2024-01-27T09:24:37;102594.63;;;5.75;100.00
38718;BME280;24468;52.128;9.278;2024-01-27T09:27:03;102601.56;;;5.53;100.00
38718;BME280;24468;52.128;9.278;2024-01-27T09:29:29;102605.41;;;5.83;100.00
38718;BME280;24468;52.128;9.278;2024-01-27T09:31:54;102603.00;;;6.16;100.00
38718;BME280;24468;52.128;9.278;2024-01-27T09:34:20;102604.09;;;6.46;100.00
38718;BME280;24468;52.128;9.278;2024-01-27T09:36:45;102600.34;;;6.18;100.00
38718;BME280;24468;52.128;9.278;2024-01-27T09:39:11;102608.47;;;6.33;100.00
38718;BME280;24468;52.128;9.278;2024-01-27T09:41:37;102610.44;;;6.59;100.00
38718;BME280;24468;52.128;9.278;2024-01-27T09:44:04;102617.50;;;6.44;100.00
38718;BME280;24468;52.128;9.278;2024-01-27T09:46:31;102614.59;;;6.09;100.00
38718;BME280;24468;52.128;9.278;2024-01-27T09:48:57;102613.06;;;6.54;100.00
38718;BME280;24468;52.128;9.278;2024-01-27T09:51:25;102614.09;;;6.81;100.00
38718;BME280;24468;52.128;9.278;2024-01-27T09:53:52;102614.25;;;7.16;100.00
38718;BME280;24468;52.128;9.278;2024-01-27T09:56:18;102624.06;;;7.12;100.00
38718;BME280;24468;52.128;9.278;2024-01-27T09:58:45;102626.75;;;7.20;100.00
38718;BME280;24468;52.128;9.278;2024-01-27T10:01:11;102626.75;;;7.17;100.00
38718;BME280;24468;52.128;9.278;2024-01-27T10:03:41;102610.72;;;7.43;100.00
38718;BME280;24468;52.128;9.278;2024-01-27T10:06:10;102622.38;;;7.59;100.00
38718;BME280;24468;52.128;9.278;2024-01-27T10:08:36;102616.09;;;7.75;100.00
38718;BME280;24468;52.128;9.278;2024-01-27T10:11:09;102615.22;;;7.86;100.00
38718;BME280;24468;52.128;9.278;2024-01-27T10:13:39;102613.44;;;7.91;100.00
38718;BME280;24468;52.128;9.278;2024-01-27T10:16:08;102616.13;;;7.85;100.00
38718;BME280;24468;52.128;9.278;2024-01-27T10:18:34;102608.94;;;7.44;100.00
38718;BME280;24468;52.128;9.278;2024-01-27T10:21:00;102619.69;;;7.62;100.00
38718;BME280;24468;52.128;9.278;2024-01-27T10:23:39;102623.28;;;8.10;100.00
38718;BME280;24468;52.128;9.278;2024-01-27T10:26:05;102619.69;;;8.23;100.00
38718;BME280;24468;52.128;9.278;2024-01-27T10:28:30;102622.34;;;8.28;100.00
38718;BME280;24468;52.128;9.278;2024-01-27T10:31:11;102624.09;;;8.63;100.00
38718;BME280;24468;52.128;9.278;2024-01-27T10:33:37;102614.25;;;8.59;100.00
38718;BME280;24468;52.128;9.278;2024-01-27T10:36:03;102624.91;;;8.89;100.00
38718;BME280;24468;52.128;9.278;2024-01-27T10:38:38;102620.34;;;9.07;100.00
38718;BME280;24468;52.128;9.278;2024-01-27T10:41:10;102622.16;;;9.02;100.00
38718;BME280;24468;52.128;9.278;2024-01-27T10:43:39;102609.44;;;9.27;100.00
38718;BME280;24468;52.128;9.278;2024-01-27T10:46:08;102613.31;;;8.71;100.00
38718;BME280;24468;52.128;9.278;2024-01-27T10:48:35;102610.69;;;8.51;100.00
38718;BME280;24468;52.128;9.278;2024-01-27T10:51:09;102618.66;;;8.84;100.00
38718;BME280;24468;52.128;9.278;2024-01-27T10:53:36;102611.47;;;8.89;100.00
38718;BME280;24468;52.128;9.278;2024-01-27T10:56:04;102605.31;;;8.49;100.00
38718;BME280;24468;52.128;9.278;2024-01-27T10:58:35;102608.00;;;8.37;100.00
38718;BME280;24468;52.128;9.278;2024-01-27T11:01:11;102605.19;;;8.87;100.00
38718;BME280;24468;52.128;9.278;2024-01-27T11:03:40;102598.03;;;8.74;100.00
38718;BME280;24468;52.128;9.278;2024-01-27T11:06:06;102600.81;;;8.50;100.00
38718;BME280;24468;52.128;9.278;2024-01-27T11:08:34;102581.06;;;8.60;100.00
38718;BME280;24468;52.128;9.278;2024-01-27T11:11:01;102587.28;;;8.76;100.00
38718;BME280;24468;52.128;9.278;2024-01-27T11:13:30;102589.19;;;8.37;100.00
38718;BME280;24468;52.128;9.278;2024-01-27T11:15:57;102590.84;;;8.84;100.00
38718;BME280;24468;52.128;9.278;2024-01-27T11:18:26;102596.31;;;8.64;100.00
38718;BME280;24468;52.128;9.278;2024-01-27T11:20:58;102586.28;;;8.94;100.00
38718;BME280;24468;52.128;9.278;2024-01-27T11:23:32;102603.44;;;8.76;100.00
38718;BME280;24468;52.128;9.278;2024-01-27T11:26:06;102593.50;;;8.95;100.00
38718;BME280;24468;52.128;9.278;2024-01-27T11:28:32;102609.78;;;8.53;100.00
38718;BME280;24468;52.128;9.278;2024-01-27T11:30:58;102593.69;;;8.32;100.00
38718;BME280;24468;52.128;9.278;2024-01-27T11:33:28;102599.06;;;8.42;100.00
38718;BME280;24468;52.128;9.278;2024-01-27T11:36:04;102591.78;;;8.71;100.00
38718;BME280;24468;52.128;9.278;2024-01-27T11:38:31;102593.66;;;8.49;100.00
38718;BME280;24468;52.128;9.278;2024-01-27T11:40:59;102605.31;;;8.32;100.00
38718;BME280;24468;52.128;9.278;2024-01-27T11:43:25;102595.38;;;8.71;100.00
38718;BME280;24468;52.128;9.278;2024-01-27T11:45:58;102597.06;;;8.94;100.00
38718;BME280;24468;52.128;9.278;2024-01-27T11:48:24;102592.59;;;8.97;100.00
38718;BME280;24468;52.128;9.278;2024-01-27T11:51:05;102602.63;;;8.51;100.00
38718;BME280;24468;52.128;9.278;2024-01-27T11:53:31;102606.22;;;8.30;100.00
38718;BME280;24468;52.128;9.278;2024-01-27T11:55:57;102598.03;;;8.83;100.00
38718;BME280;24468;52.128;9.278;2024-01-27T11:58:24;102601.72;;;8.30;100.00
38718;BME280;24468;52.128;9.278;2024-01-27T12:00:50;102599.94;;;8.49;100.00
38718;BME280;24468;52.128;9.278;2024-01-27T12:03:15;102600.81;;;8.50;100.00
38718;BME280;24468;52.128;9.278;2024-01-27T12:05:41;102600.88;;;8.20;100.00
38718;BME280;24468;52.128;9.278;2024-01-27T12:08:10;102602.66;;;8.15;100.00
38718;BME280;24468;52.128;9.278;2024-01-27T12:10:36;102612.41;;;8.78;100.00
38718;BME280;24468;52.128;9.278;2024-01-27T12:13:02;102615.94;;;8.89;100.00
38718;BME280;24468;52.128;9.278;2024-01-27T12:15:28;102611.44;;;8.94;100.00
38718;BME280;24468;52.128;9.278;2024-01-27T12:17:53;102612.28;;;8.99;100.00
38718;BME280;24468;52.128;9.278;2024-01-27T12:20:19;102615.16;;;8.52;100.00
38718;BME280;24468;52.128;9.278;2024-01-27T12:22:45;102603.41;;;8.83;100.00
38718;BME280;24468;52.128;9.278;2024-01-27T12:25:12;102612.50;;;8.32;100.00
38718;BME280;24468;52.128;9.278;2024-01-27T12:27:40;102601.50;;;9.04;100.00
38718;BME280;24468;52.128;9.278;2024-01-27T12:30:08;102608.72;;;8.97;100.00
38718;BME280;24468;52.128;9.278;2024-01-27T12:32:33;102606.97;;;8.87;100.00
38718;BME280;24468;52.128;9.278;2024-01-27T12:35:07;102624.84;;;9.02;100.00
38718;BME280;24468;52.128;9.278;2024-01-27T12:37:34;102603.28;;;9.05;100.00
38718;BME280;24468;52.128;9.278;2024-01-27T12:40:00;102603.28;;;9.06;100.00
38718;BME280;24468;52.128;9.278;2024-01-27T12:42:26;102610.53;;;9.00;100.00
38718;BME280;24468;52.128;9.278;2024-01-27T12:44:51;102598.69;;;9.25;100.00
38718;BME280;24468;52.128;9.278;2024-01-27T12:47:17;102598.44;;;9.62;100.00